Time;durP1;ratioP1;P1;durP2;ratioP2;P2;SDS_P1;SDS_P2;PMS_P1;PMS_P2;Temp;Humidity;BMP_temperature;BMP_pressure;BME280_temperature;BME280_humidity;BME280_pressure;Samples;Min_cycle;Max_cycle;Signal;HPM_P1;HPM_P2
2023/11/23 00:00:42;;;;;;;22.52;12.35;;;7.80;99.90;;;;;;4158198;28;20035;-73
2023/11/23 00:02:42;;;;;;;23.98;13.13;;;7.80;99.90;;;;;;4166376;28;20147;-74
2023/11/23 00:04:43;;;;;;;20.10;11.65;;;7.90;99.90;;;;;;4165384;28;20121;-73
2023/11/23 00:06:43;;;;;;;19.55;12.23;;;7.90;99.90;;;;;;4149582;28;20419;-73
2023/11/23 00:08:44;;;;;;;20.55;12.27;;;7.90;99.90;;;;;;4164525;28;20034;-72
2023/11/23 00:10:45;;;;;;;23.23;12.65;;;7.90;99.90;;;;;;4130986;28;20041;-72
2023/11/23 00:12:45;;;;;;;19.98;12.20;;;7.90;99.90;;;;;;4149023;28;20068;-74
2023/11/23 00:14:46;;;;;;;20.83;10.98;;;7.90;99.90;;;;;;4166803;28;20029;-73
2023/11/23 00:16:46;;;;;;;21.10;12.40;;;7.90;99.90;;;;;;4146072;28;20064;-75
2023/11/23 00:18:48;;;;;;;21.05;12.68;;;7.90;99.90;;;;;;4161962;28;20502;-72
2023/11/23 00:20:48;;;;;;;24.35;12.85;;;8.00;99.90;;;;;;4168785;28;20050;-73
2023/11/23 00:22:49;;;;;;;21.27;13.57;;;7.90;99.90;;;;;;4150354;28;20115;-73
2023/11/23 00:24:49;;;;;;;24.95;13.82;;;8.00;99.90;;;;;;4167704;28;20127;-74
2023/11/23 00:26:53;;;;;;;20.52;12.90;;;7.90;99.90;;;;;;4169514;28;20099;-74
2023/11/23 00:28:54;;;;;;;23.35;12.65;;;8.00;99.90;;;;;;4152096;28;20125;-75
2023/11/23 00:30:55;;;;;;;23.13;12.45;;;8.00;99.90;;;;;;4166431;28;20029;-74
2023/11/23 00:32:55;;;;;;;19.48;11.18;;;8.00;99.90;;;;;;4150003;28;20095;-73
2023/11/23 00:34:56;;;;;;;22.23;11.63;;;8.00;99.90;;;;;;4151504;28;20061;-74
2023/11/23 00:36:57;;;;;;;21.35;12.35;;;8.00;99.90;;;;;;4170399;28;20029;-73
2023/11/23 00:38:58;;;;;;;23.63;11.68;;;8.10;99.90;;;;;;4152724;28;20048;-73
2023/11/23 00:41:01;;;;;;;18.58;11.02;;;8.10;99.90;;;;;;4163161;28;20029;-73
2023/11/23 00:43:01;;;;;;;;;;;8.10;99.90;;;;;;4147611;28;20534;-74
2023/11/23 00:45:02;;;;;;;21.73;11.68;;;8.10;99.90;;;;;;4168124;28;19909;-74
2023/11/23 00:47:03;;;;;;;25.40;13.20;;;8.10;99.90;;;;;;4169153;28;20512;-73
2023/11/23 00:49:04;;;;;;;21.65;12.45;;;8.10;99.90;;;;;;4130246;28;20129;-73
2023/11/23 00:51:05;;;;;;;21.50;11.98;;;8.10;99.90;;;;;;4144204;28;20446;-74
2023/11/23 00:53:06;;;;;;;23.20;12.45;;;8.10;99.90;;;;;;4148644;28;20100;-74
2023/11/23 00:55:07;;;;;;;20.73;12.63;;;8.20;99.90;;;;;;4146484;28;20052;-75
2023/11/23 00:57:08;;;;;;;20.67;12.32;;;8.20;99.90;;;;;;4145075;28;20228;-74
2023/11/23 00:59:08;;;;;;;21.38;11.98;;;8.20;99.90;;;;;;4148339;28;20045;-74
2023/11/23 01:01:16;;;;;;;26.52;14.77;;;8.20;99.90;;;;;;4143904;28;20034;-74
2023/11/23 01:03:16;;;;;;;25.80;13.18;;;8.20;99.90;;;;;;4153861;28;20041;-74
2023/11/23 01:05:18;;;;;;;26.88;14.05;;;8.10;99.90;;;;;;4165506;28;20033;-74
2023/11/23 01:07:19;;;;;;;22.90;12.55;;;8.20;99.90;;;;;;4154909;28;20041;-74
2023/11/23 01:09:20;;;;;;;22.42;12.80;;;8.10;99.90;;;;;;4156054;28;20656;-74
2023/11/23 01:11:23;;;;;;;26.20;13.52;;;8.10;99.90;;;;;;4163152;28;20036;-74
2023/11/23 01:13:25;;;;;;;22.23;12.55;;;8.10;99.90;;;;;;4143442;28;20065;-74
2023/11/23 01:15:26;;;;;;;24.85;14.05;;;8.10;99.90;;;;;;4166068;28;20057;-74
2023/11/23 01:17:27;;;;;;;22.75;13.18;;;8.20;99.90;;;;;;4167155;28;20410;-73
2023/11/23 01:19:27;;;;;;;21.73;12.75;;;8.20;99.90;;;;;;4150818;28;20025;-74
2023/11/23 01:21:28;;;;;;;21.50;13.07;;;8.10;99.90;;;;;;4137405;28;20056;-73
2023/11/23 01:23:29;;;;;;;20.90;11.90;;;8.10;99.90;;;;;;4150438;28;20108;-75
2023/11/23 01:25:30;;;;;;;20.67;12.23;;;8.10;99.90;;;;;;4140860;28;20041;-73
2023/11/23 01:27:31;;;;;;;23.13;13.25;;;8.10;99.90;;;;;;4169363;28;20058;-73
2023/11/23 01:29:31;;;;;;;25.27;13.10;;;8.10;99.90;;;;;;4143865;28;20042;-74
2023/11/23 01:31:32;;;;;;;25.42;13.05;;;8.10;99.90;;;;;;4146923;28;20037;-74
2023/11/23 01:33:32;;;;;;;20.40;12.15;;;8.10;99.90;;;;;;4163563;28;20446;-72
2023/11/23 01:35:33;;;;;;;20.88;12.82;;;8.10;99.90;;;;;;4161128;28;20048;-73
2023/11/23 01:37:36;;;;;;;22.58;13.00;;;8.10;99.90;;;;;;4160608;28;20083;-72
2023/11/23 01:39:37;;;;;;;25.27;13.40;;;8.10;99.90;;;;;;4140866;28;20038;-72
2023/11/23 01:41:38;;;;;;;22.85;13.38;;;8.10;99.90;;;;;;4148190;28;20083;-73
2023/11/23 01:43:39;;;;;;;28.08;14.18;;;8.10;99.90;;;;;;4137479;28;20022;-74
2023/11/23 01:45:39;;;;;;;23.25;13.45;;;8.10;99.90;;;;;;4145180;28;20448;-73
2023/11/23 01:47:43;;;;;;;19.35;12.48;;;8.10;99.90;;;;;;4155440;28;20025;-72
2023/11/23 01:49:45;;;;;;;22.33;11.98;;;8.20;99.90;;;;;;4148305;28;20030;-74
2023/11/23 01:51:46;;;;;;;;;;;8.20;99.90;;;;;;4149863;28;20034;-72
2023/11/23 01:53:48;;;;;;;22.70;13.00;;;8.10;99.90;;;;;;4134288;28;20000;-73
2023/11/23 01:55:49;;;;;;;19.45;12.10;;;8.10;99.90;;;;;;4144046;28;20108;-74
2023/11/23 01:57:52;;;;;;;23.13;12.93;;;8.20;99.90;;;;;;4170168;28;20495;-73
2023/11/23 01:59:54;;;;;;;24.40;12.95;;;8.20;99.90;;;;;;4148412;28;20052;-73
2023/11/23 02:01:55;;;;;;;26.25;13.43;;;8.20;99.90;;;;;;4153882;28;20060;-73
2023/11/23 02:03:56;;;;;;;22.30;13.23;;;8.30;99.90;;;;;;4135402;28;20026;-73
2023/11/23 02:05:56;;;;;;;26.10;13.88;;;8.20;99.90;;;;;;4156191;28;20097;-72
2023/11/23 02:07:57;;;;;;;27.23;13.85;;;8.20;99.90;;;;;;4156802;28;20045;-73
2023/11/23 02:09:57;;;;;;;26.35;13.73;;;8.20;99.90;;;;;;4137509;28;20449;-75
2023/11/23 02:12:01;;;;;;;21.77;13.35;;;8.20;99.90;;;;;;4140100;28;20392;-75
2023/11/23 02:14:05;;;;;;;22.13;12.98;;;8.30;99.90;;;;;;4149033;28;20037;-75
2023/11/23 02:16:06;;;;;;;26.67;14.60;;;8.30;99.90;;;;;;4161462;28;20041;-73
2023/11/23 02:18:07;;;;;;;22.33;13.50;;;8.20;99.90;;;;;;4147752;28;20038;-72
2023/11/23 02:20:09;;;;;;;24.00;13.50;;;8.30;99.90;;;;;;4146978;28;20128;-74
2023/11/23 02:22:09;;;;;;;23.83;13.63;;;8.20;99.90;;;;;;4155652;28;20049;-73
2023/11/23 02:24:13;;;;;;;20.92;12.95;;;8.30;99.90;;;;;;4169127;28;20060;-74
2023/11/23 02:26:14;;;;;;;28.33;14.73;;;8.30;99.90;;;;;;4151725;28;20106;-72
2023/11/23 02:28:15;;;;;;;21.23;13.00;;;8.20;99.90;;;;;;4148976;28;20144;-76
2023/11/23 02:30:16;;;;;;;22.75;13.35;;;8.30;99.90;;;;;;4154763;28;20068;-76
2023/11/23 02:32:29;;;;;;;23.40;13.68;;;8.30;99.90;;;;;;4150286;28;20129;-75
2023/11/23 02:34:30;;;;;;;;;;;8.30;99.90;;;;;;4148744;28;20062;-75
2023/11/23 02:36:30;;;;;;;22.85;13.23;;;8.40;99.90;;;;;;4152641;28;19924;-76
2023/11/23 02:38:31;;;;;;;28.55;15.98;;;8.40;99.90;;;;;;4167807;28;20092;-75
2023/11/23 02:40:32;;;;;;;26.48;14.35;;;8.40;99.90;;;;;;4127322;28;20046;-76
2023/11/23 02:42:33;;;;;;;24.23;14.57;;;8.40;99.90;;;;;;4148809;28;20034;-75
2023/11/23 02:44:34;;;;;;;26.88;15.77;;;8.40;99.90;;;;;;4156857;28;20039;-75
2023/11/23 02:46:35;;;;;;;24.75;14.00;;;8.40;99.90;;;;;;4170971;28;20433;-75
2023/11/23 02:48:35;;;;;;;24.23;14.70;;;8.40;99.90;;;;;;4155664;28;20030;-75
2023/11/23 02:50:36;;;;;;;25.15;13.85;;;8.40;99.90;;;;;;4152912;28;20129;-75
2023/11/23 02:52:37;;;;;;;25.45;14.18;;;8.40;99.90;;;;;;4146486;28;20041;-75
2023/11/23 02:54:38;;;;;;;25.20;13.77;;;8.40;99.90;;;;;;4155212;28;20049;-75
2023/11/23 02:56:39;;;;;;;24.25;14.85;;;8.40;99.90;;;;;;4156198;28;20677;-75
2023/11/23 02:58:39;;;;;;;24.77;13.63;;;8.40;99.90;;;;;;4149288;28;20057;-75
2023/11/23 03:00:40;;;;;;;24.85;12.90;;;8.40;99.90;;;;;;4151772;28;20036;-75
2023/11/23 03:02:41;;;;;;;28.63;14.07;;;8.50;99.90;;;;;;4157558;28;20083;-76
2023/11/23 03:04:42;;;;;;;22.83;13.05;;;8.40;99.90;;;;;;4159184;28;20079;-75
2023/11/23 03:06:43;;;;;;;22.25;13.35;;;8.40;99.90;;;;;;4152943;28;20427;-75
2023/11/23 03:08:43;;;;;;;24.08;13.75;;;8.50;99.90;;;;;;4149689;28;20037;-75
2023/11/23 03:10:44;;;;;;;27.05;13.48;;;8.50;99.90;;;;;;4133870;28;20602;-76
2023/11/23 03:12:45;;;;;;;22.13;13.20;;;8.50;99.90;;;;;;4143248;28;20041;-75
2023/11/23 03:14:45;;;;;;;19.50;11.55;;;8.50;99.90;;;;;;4147281;28;20452;-75
2023/11/23 03:16:46;;;;;;;21.58;12.95;;;8.50;99.90;;;;;;4152660;28;20504;-75
2023/11/23 03:18:47;;;;;;;22.17;12.98;;;8.60;99.90;;;;;;4151609;28;20030;-75
2023/11/23 03:20:47;;;;;;;22.23;14.05;;;8.60;99.90;;;;;;4147997;28;20033;-76
2023/11/23 03:22:48;;;;;;;20.23;12.13;;;8.60;99.90;;;;;;4123290;28;20388;-75
2023/11/23 03:24:49;;;;;;;20.70;11.48;;;8.60;99.90;;;;;;4170998;28;20507;-76
2023/11/23 03:26:50;;;;;;;23.17;12.68;;;8.60;99.90;;;;;;4144720;28;20045;-76
2023/11/23 03:28:51;;;;;;;19.67;12.07;;;8.60;99.90;;;;;;4149719;28;20418;-76
2023/11/23 03:30:53;;;;;;;21.15;11.95;;;8.70;99.90;;;;;;4136885;28;20080;-76
2023/11/23 03:32:54;;;;;;;20.75;12.15;;;8.70;99.90;;;;;;4152600;28;20065;-76
2023/11/23 03:34:55;;;;;;;24.35;12.65;;;8.70;99.90;;;;;;4154910;28;22447;-75
2023/11/23 03:36:56;;;;;;;22.05;12.73;;;8.70;99.90;;;;;;4133060;28;20053;-75
2023/11/23 03:38:57;;;;;;;27.42;14.55;;;8.80;99.90;;;;;;4148470;28;20049;-76
2023/11/23 03:40:58;;;;;;;27.67;14.63;;;8.80;99.90;;;;;;4155710;28;20033;-75
2023/11/23 03:42:59;;;;;;;23.95;13.20;;;8.70;99.90;;;;;;4151809;28;20136;-75
2023/11/23 03:44:59;;;;;;;21.10;12.45;;;8.80;99.90;;;;;;4148056;28;20044;-76
2023/11/23 03:47:00;;;;;;;22.27;13.57;;;8.80;99.90;;;;;;4151898;28;20042;-75
2023/11/23 03:49:00;;;;;;;19.30;12.23;;;8.80;99.90;;;;;;4154228;28;20043;-75
2023/11/23 03:51:02;;;;;;;21.13;13.23;;;8.80;99.90;;;;;;4152161;28;20056;-75
2023/11/23 03:53:04;;;;;;;18.25;12.20;;;8.80;99.90;;;;;;4155457;28;20057;-77
2023/11/23 03:55:05;;;;;;;21.75;12.82;;;8.80;99.90;;;;;;4142705;28;20033;-77
2023/11/23 03:57:06;;;;;;;23.30;13.50;;;8.80;99.90;;;;;;4168788;28;20517;-77
2023/11/23 03:59:06;;;;;;;27.40;14.63;;;8.80;99.90;;;;;;4151098;28;20022;-77
2023/11/23 04:01:09;;;;;;;24.92;14.10;;;8.80;99.90;;;;;;4152426;28;20041;-76
2023/11/23 04:03:10;;;;;;;;;;;8.90;99.90;;;;;;4154869;28;20396;-78
2023/11/23 04:05:10;;;;;;;24.50;13.40;;;8.90;99.90;;;;;;4150267;28;19925;-77
2023/11/23 04:07:11;;;;;;;24.88;13.68;;;8.90;99.90;;;;;;4134395;28;20725;-77
2023/11/23 04:09:13;;;;;;;20.77;12.57;;;8.90;99.90;;;;;;4147872;28;20582;-77
2023/11/23 04:11:14;;;;;;;24.50;13.80;;;8.90;99.90;;;;;;4118807;28;20429;-76
2023/11/23 04:13:14;;;;;;;21.42;12.35;;;8.90;99.90;;;;;;4151613;28;20040;-76
2023/11/23 04:15:16;;;;;;;20.10;12.45;;;8.90;99.90;;;;;;4148121;28;20049;-76
2023/11/23 04:17:16;;;;;;;21.00;12.23;;;8.90;99.90;;;;;;4156716;28;20037;-75
2023/11/23 04:19:17;;;;;;;20.60;12.30;;;8.90;99.90;;;;;;4152480;28;20071;-76
2023/11/23 04:21:17;;;;;;;19.77;12.15;;;9.00;99.90;;;;;;4156121;28;20036;-76
2023/11/23 04:23:18;;;;;;;23.13;12.88;;;9.00;99.90;;;;;;4138614;28;20427;-77
2023/11/23 04:25:19;;;;;;;30.50;15.98;;;9.00;99.90;;;;;;4128302;28;20042;-76
2023/11/23 04:27:20;;;;;;;25.13;12.93;;;9.00;99.90;;;;;;4141585;28;20045;-76
2023/11/23 04:29:20;;;;;;;26.38;13.88;;;9.10;99.90;;;;;;4140113;28;20648;-77
2023/11/23 04:31:21;;;;;;;18.63;11.80;;;9.10;99.90;;;;;;4148345;28;20691;-77
2023/11/23 04:33:22;;;;;;;22.38;12.73;;;9.10;99.90;;;;;;4143052;28;20038;-76
2023/11/23 04:35:23;;;;;;;21.27;12.90;;;9.10;99.90;;;;;;4148051;28;21866;-77
2023/11/23 04:37:23;;;;;;;24.02;13.80;;;9.20;99.90;;;;;;4149461;28;20046;-77
2023/11/23 04:39:25;;;;;;;22.17;12.65;;;9.20;99.90;;;;;;4152141;28;20092;-78
2023/11/23 04:41:25;;;;;;;17.73;12.02;;;9.20;99.90;;;;;;4147384;28;20049;-76
2023/11/23 04:43:26;;;;;;;20.80;12.52;;;9.20;99.90;;;;;;4134812;28;20038;-77
2023/11/23 04:45:27;;;;;;;25.13;13.65;;;9.30;99.90;;;;;;4150023;28;20491;-77
2023/11/23 04:47:27;;;;;;;24.50;13.77;;;9.30;99.90;;;;;;4153841;28;20026;-76
2023/11/23 04:49:28;;;;;;;23.77;15.68;;;9.30;99.90;;;;;;4149395;28;20053;-74
2023/11/23 04:51:29;;;;;;;25.13;13.20;;;9.30;99.90;;;;;;4151735;28;20458;-74
2023/11/23 04:53:29;;;;;;;24.83;14.20;;;9.30;99.90;;;;;;4118722;28;20042;-74
2023/11/23 04:55:30;;;;;;;26.02;15.85;;;9.30;99.90;;;;;;4141768;28;20709;-74
2023/11/23 04:57:32;;;;;;;26.95;14.38;;;9.30;99.90;;;;;;4148401;28;20030;-74
2023/11/23 04:59:32;;;;;;;19.50;13.32;;;9.30;99.90;;;;;;4152415;28;20038;-73
2023/11/23 05:01:33;;;;;;;24.88;14.68;;;9.40;99.90;;;;;;4150990;28;20051;-74
2023/11/23 05:03:34;;;;;;;25.63;15.85;;;9.30;99.90;;;;;;4155401;28;20025;-75
2023/11/23 05:05:34;;;;;;;29.10;16.00;;;9.40;99.90;;;;;;4151040;28;20120;-73
2023/11/23 05:07:35;;;;;;;23.52;14.23;;;9.40;99.90;;;;;;4153786;28;20033;-73
2023/11/23 05:09:36;;;;;;;24.58;14.70;;;9.40;99.90;;;;;;4151816;28;20088;-72
2023/11/23 05:11:36;;;;;;;24.42;15.05;;;9.40;99.90;;;;;;4149089;28;20064;-75
2023/11/23 05:13:37;;;;;;;23.90;14.38;;;9.40;99.90;;;;;;4154426;28;20022;-74
2023/11/23 05:15:38;;;;;;;26.40;14.77;;;9.40;99.90;;;;;;4151941;28;20511;-74
2023/11/23 05:17:38;;;;;;;21.48;14.13;;;9.50;99.90;;;;;;4152914;28;20029;-74
2023/11/23 05:19:39;;;;;;;25.90;16.02;;;9.50;99.90;;;;;;4154076;28;20395;-74
2023/11/23 05:21:39;;;;;;;21.27;14.18;;;9.50;99.90;;;;;;4150615;28;21750;-75
2023/11/23 05:23:40;;;;;;;28.23;15.23;;;9.50;99.90;;;;;;4145019;28;20404;-75
2023/11/23 05:25:41;;;;;;;22.95;14.32;;;9.60;99.90;;;;;;4146426;28;20053;-75
2023/11/23 05:27:41;;;;;;;23.83;14.35;;;9.50;99.90;;;;;;4149854;28;20045;-74
2023/11/23 05:29:42;;;;;;;24.88;15.02;;;9.60;99.90;;;;;;4148944;28;20049;-75
2023/11/23 05:31:43;;;;;;;21.38;13.85;;;9.60;99.90;;;;;;4148425;28;20045;-74
2023/11/23 05:33:43;;;;;;;23.60;13.98;;;9.60;99.90;;;;;;4157639;28;20471;-74
2023/11/23 05:35:44;;;;;;;22.63;13.93;;;9.60;99.90;;;;;;4155412;28;20038;-74
2023/11/23 05:37:44;;;;;;;30.75;16.73;;;9.60;99.90;;;;;;4170366;28;20483;-75
2023/11/23 05:39:45;;;;;;;32.60;16.45;;;9.60;99.90;;;;;;4151006;28;20061;-75
2023/11/23 05:41:46;;;;;;;23.95;14.32;;;9.60;99.90;;;;;;4130432;28;20061;-74
2023/11/23 05:43:48;;;;;;;27.77;16.45;;;9.60;99.90;;;;;;4136491;28;20052;-74
2023/11/23 05:45:48;;;;;;;25.58;15.15;;;9.60;99.90;;;;;;4152309;28;20029;-74
2023/11/23 05:47:49;;;;;;;24.50;14.65;;;9.60;99.90;;;;;;4152830;28;20080;-76
2023/11/23 05:49:49;;;;;;;20.58;13.32;;;9.60;99.90;;;;;;4154190;28;20025;-74
2023/11/23 05:51:51;;;;;;;25.70;13.98;;;9.60;99.90;;;;;;4154376;28;20044;-73
2023/11/23 05:53:55;;;;;;;23.10;14.33;;;9.60;99.90;;;;;;4151733;28;20029;-73
2023/11/23 05:55:55;;;;;;;29.23;13.25;;;9.60;99.90;;;;;;4154677;28;20107;-73
2023/11/23 05:57:56;;;;;;;22.38;14.55;;;9.70;99.90;;;;;;4133901;28;20042;-73
2023/11/23 05:59:56;;;;;;;24.30;14.82;;;9.70;99.90;;;;;;4154828;28;20052;-76
2023/11/23 06:01:57;;;;;;;22.60;13.32;;;9.60;99.90;;;;;;4154636;28;20096;-75
2023/11/23 06:03:58;;;;;;;24.40;14.30;;;9.70;99.90;;;;;;4140839;28;20037;-76
2023/11/23 06:05:58;;;;;;;27.05;14.35;;;9.70;99.90;;;;;;4134016;28;20034;-75
2023/11/23 06:07:59;;;;;;;22.75;13.80;;;9.70;99.90;;;;;;4151069;28;20053;-76
2023/11/23 06:10:01;;;;;;;27.38;13.70;;;9.70;99.90;;;;;;4148259;28;20129;-75
2023/11/23 06:12:02;;;;;;;25.98;14.63;;;9.70;99.90;;;;;;4147865;28;20136;-74
2023/11/23 06:14:03;;;;;;;20.38;13.10;;;9.70;99.90;;;;;;4160240;28;20041;-74
2023/11/23 06:16:04;;;;;;;21.90;13.57;;;9.70;99.90;;;;;;4135990;28;20049;-75
2023/11/23 06:18:05;;;;;;;24.83;13.73;;;9.70;99.90;;;;;;4153290;28;20411;-73
2023/11/23 06:20:08;;;;;;;21.23;13.55;;;9.80;99.90;;;;;;4150815;28;20044;-72
2023/11/23 06:22:09;;;;;;;22.65;14.38;;;9.80;99.90;;;;;;4149963;28;20045;-74
2023/11/23 06:24:09;;;;;;;21.55;14.25;;;9.80;99.90;;;;;;4162217;28;20055;-74
2023/11/23 06:26:11;;;;;;;25.13;14.73;;;9.80;99.90;;;;;;4152834;28;22730;-74
2023/11/23 06:28:11;;;;;;;25.48;15.32;;;9.80;99.90;;;;;;4128888;28;20047;-74
2023/11/23 06:30:13;;;;;;;24.45;14.48;;;9.80;99.90;;;;;;4126842;28;20042;-74
2023/11/23 06:32:13;;;;;;;21.73;13.77;;;9.90;99.90;;;;;;4161696;28;20088;-74
2023/11/23 06:34:14;;;;;;;24.05;14.23;;;9.90;99.90;;;;;;4154941;28;20048;-74
2023/11/23 06:36:16;;;;;;;21.95;14.30;;;9.90;99.90;;;;;;4146076;28;20072;-74
2023/11/23 06:38:17;;;;;;;25.90;15.85;;;9.90;99.90;;;;;;4150992;28;20121;-74
2023/11/23 06:40:18;;;;;;;22.95;13.93;;;9.90;99.90;;;;;;4127799;28;20467;-74
2023/11/23 06:42:20;;;;;;;23.20;14.55;;;9.90;99.90;;;;;;4160996;28;20048;-73
2023/11/23 06:44:23;;;;;;;21.30;12.63;;;9.90;99.90;;;;;;4130313;28;20025;-73
2023/11/23 06:46:23;;;;;;;24.25;14.48;;;9.90;99.90;;;;;;4107517;28;20085;-74
2023/11/23 06:48:24;;;;;;;21.33;13.50;;;9.90;99.90;;;;;;4097798;28;20034;-73
2023/11/23 06:50:25;;;;;;;25.23;15.00;;;10.00;99.90;;;;;;4133569;28;20038;-74
2023/11/23 06:52:26;;;;;;;22.92;14.07;;;10.00;99.90;;;;;;4113481;28;20098;-74
2023/11/23 06:54:27;;;;;;;21.25;14.35;;;10.00;99.90;;;;;;4165443;28;20035;-73
2023/11/23 06:56:27;;;;;;;19.55;13.07;;;10.00;99.90;;;;;;4136206;28;21417;-74
2023/11/23 06:58:28;;;;;;;28.05;15.50;;;10.00;99.90;;;;;;4115686;28;20041;-72
2023/11/23 07:00:29;;;;;;;24.63;15.02;;;10.00;99.90;;;;;;4141988;28;20049;-73
2023/11/23 07:02:30;;;;;;;20.92;14.05;;;10.00;99.90;;;;;;4146983;28;20040;-73
2023/11/23 07:04:31;;;;;;;24.13;14.00;;;10.00;99.90;;;;;;4145684;28;20416;-73
2023/11/23 07:06:31;;;;;;;24.13;14.73;;;10.00;99.90;;;;;;4163652;28;20475;-74
2023/11/23 07:08:34;;;;;;;26.70;16.02;;;10.10;99.90;;;;;;4116185;28;20057;-73
2023/11/23 07:10:36;;;;;;;21.35;13.75;;;10.10;99.90;;;;;;4152719;28;20094;-73
2023/11/23 07:12:36;;;;;;;22.88;14.45;;;10.10;99.90;;;;;;4150791;28;20124;-73
2023/11/23 07:14:37;;;;;;;23.58;14.77;;;10.00;99.90;;;;;;4152436;28;20488;-73
2023/11/23 07:16:38;;;;;;;22.70;14.93;;;10.10;99.90;;;;;;4159113;28;20494;-73
2023/11/23 07:18:39;;;;;;;25.98;14.10;;;10.10;99.90;;;;;;4154010;28;20037;-72
2023/11/23 07:20:41;;;;;;;21.10;12.95;;;10.10;99.90;;;;;;4148870;28;20057;-73
2023/11/23 07:22:42;;;;;;;26.52;14.50;;;10.10;99.90;;;;;;4163361;28;20041;-74
2023/11/23 07:24:42;;;;;;;21.42;13.75;;;10.10;99.90;;;;;;4162989;28;20456;-73
2023/11/23 07:26:43;;;;;;;24.35;14.73;;;10.20;99.90;;;;;;4166421;28;20064;-73
2023/11/23 07:28:44;;;;;;;22.83;14.63;;;10.10;99.90;;;;;;4149949;28;20036;-73
2023/11/23 07:30:45;;;;;;;21.17;14.80;;;10.20;99.90;;;;;;4150639;28;20064;-74
2023/11/23 07:32:45;;;;;;;25.00;15.00;;;10.20;99.90;;;;;;4154351;28;20041;-74
2023/11/23 07:34:47;;;;;;;19.35;13.30;;;10.20;99.90;;;;;;4142029;28;20087;-73
2023/11/23 07:36:48;;;;;;;22.83;14.23;;;10.20;99.90;;;;;;4151714;28;20055;-74
2023/11/23 07:38:48;;;;;;;23.90;15.27;;;10.20;99.90;;;;;;4170129;28;20061;-73
2023/11/23 07:40:49;;;;;;;24.73;14.38;;;10.20;99.90;;;;;;4168491;28;20041;-73
2023/11/23 07:42:49;;;;;;;24.70;14.52;;;10.20;99.90;;;;;;4169109;28;20510;-73
2023/11/23 07:44:50;;;;;;;22.55;14.88;;;10.20;99.90;;;;;;4169658;28;20035;-73
2023/11/23 07:46:51;;;;;;;21.88;14.98;;;10.20;99.90;;;;;;4164948;28;20065;-73
2023/11/23 07:48:53;;;;;;;22.77;14.82;;;10.20;99.90;;;;;;4167660;28;20044;-73
2023/11/23 07:50:54;;;;;;;24.27;14.88;;;10.20;99.90;;;;;;4152723;28;20041;-73
2023/11/23 07:52:54;;;;;;;19.77;13.20;;;10.20;99.90;;;;;;4167021;28;20048;-73
2023/11/23 07:54:55;;;;;;;20.60;12.63;;;10.20;99.90;;;;;;4149048;28;20049;-72
2023/11/23 07:56:55;;;;;;;21.92;13.52;;;10.30;99.90;;;;;;4168285;28;20033;-72
2023/11/23 07:58:56;;;;;;;22.48;13.82;;;10.20;99.90;;;;;;4151324;28;20117;-73
2023/11/23 08:00:57;;;;;;;22.33;13.00;;;10.20;99.90;;;;;;4170063;28;20048;-74
2023/11/23 08:02:58;;;;;;;22.25;14.52;;;10.30;99.90;;;;;;4155246;28;20053;-73
2023/11/23 08:04:59;;;;;;;27.58;14.65;;;10.30;99.90;;;;;;4169351;28;20061;-73
2023/11/23 08:07:00;;;;;;;22.20;12.98;;;10.30;99.90;;;;;;4155002;28;20735;-73
2023/11/23 08:09:00;;;;;;;20.48;13.82;;;10.30;99.90;;;;;;4146319;28;20168;-73
2023/11/23 08:11:01;;;;;;;17.02;11.95;;;10.30;99.90;;;;;;4168817;28;20048;-73
2023/11/23 08:13:02;;;;;;;20.60;12.45;;;10.30;99.90;;;;;;4167336;28;20117;-73
2023/11/23 08:15:05;;;;;;;21.45;13.30;;;10.30;99.90;;;;;;4146911;28;20183;-74
2023/11/23 08:17:05;;;;;;;28.15;14.77;;;10.40;99.90;;;;;;4127175;28;20041;-73
2023/11/23 08:19:06;;;;;;;18.17;12.45;;;10.40;99.90;;;;;;4147495;28;20080;-73
2023/11/23 08:21:07;;;;;;;20.48;13.27;;;10.40;99.90;;;;;;4164021;28;20123;-73
2023/11/23 08:23:08;;;;;;;15.82;11.45;;;10.40;99.90;;;;;;4146942;28;20407;-74
2023/11/23 08:25:09;;;;;;;22.23;13.93;;;10.40;99.90;;;;;;4130460;28;20042;-74
2023/11/23 08:27:10;;;;;;;19.95;13.63;;;10.50;99.90;;;;;;4150905;28;20044;-74
2023/11/23 08:29:11;;;;;;;20.08;13.43;;;10.40;99.90;;;;;;4152877;28;20095;-74
2023/11/23 08:31:12;;;;;;;21.98;14.35;;;10.40;99.90;;;;;;4151950;28;20038;-74
2023/11/23 08:33:14;;;;;;;22.17;14.05;;;10.50;99.90;;;;;;4149050;28;20033;-73
2023/11/23 08:35:14;;;;;;;18.85;13.35;;;10.40;99.90;;;;;;4143856;28;20041;-73
2023/11/23 08:37:16;;;;;;;23.05;13.25;;;10.40;99.90;;;;;;4153936;28;20033;-74
2023/11/23 08:39:19;;;;;;;25.60;13.18;;;10.40;99.90;;;;;;4154523;28;20406;-73
2023/11/23 08:41:24;;;;;;;;;;;10.50;99.90;;;;;;4149907;28;20071;-73
2023/11/23 08:43:24;;;;;;;18.23;12.07;;;10.50;99.90;;;;;;4147882;28;20331;-73
2023/11/23 08:45:25;;;;;;;21.10;14.55;;;10.50;99.90;;;;;;4147976;28;20119;-73
2023/11/23 08:47:26;;;;;;;21.55;12.82;;;10.50;99.90;;;;;;4151491;28;20056;-73
2023/11/23 08:49:27;;;;;;;15.75;11.38;;;10.50;99.90;;;;;;4151313;28;20083;-74
2023/11/23 08:51:28;;;;;;;25.00;12.98;;;10.50;99.90;;;;;;4151628;28;20041;-74
2023/11/23 08:53:29;;;;;;;19.83;12.38;;;10.50;99.90;;;;;;4150007;28;20053;-72
2023/11/23 08:55:29;;;;;;;18.15;12.10;;;10.50;99.90;;;;;;4151052;28;20264;-73
2023/11/23 08:57:30;;;;;;;19.17;12.18;;;10.50;99.90;;;;;;4150539;28;20487;-73
2023/11/23 08:59:34;;;;;;;17.90;13.38;;;10.50;99.90;;;;;;4149336;28;20731;-73
2023/11/23 09:01:35;;;;;;;18.73;12.65;;;10.60;99.90;;;;;;4151455;28;20676;-74
2023/11/23 09:03:36;;;;;;;15.23;10.85;;;10.60;99.90;;;;;;4148601;28;20040;-73
2023/11/23 09:05:37;;;;;;;17.52;10.60;;;10.60;99.90;;;;;;4145239;28;20034;-73
2023/11/23 09:07:38;;;;;;;17.92;11.43;;;10.60;99.90;;;;;;4150758;28;20825;-73
2023/11/23 09:09:39;;;;;;;21.02;13.30;;;10.60;99.90;;;;;;4134034;28;20131;-73
2023/11/23 09:11:41;;;;;;;18.40;11.80;;;10.60;99.90;;;;;;4149968;28;20112;-74
2023/11/23 09:13:45;;;;;;;17.27;11.65;;;10.60;99.90;;;;;;4150348;28;20034;-73
2023/11/23 09:15:46;;;;;;;20.40;12.70;;;10.70;99.90;;;;;;4150881;28;20123;-73
2023/11/23 09:17:47;;;;;;;23.67;12.95;;;10.70;99.90;;;;;;4154021;28;21630;-74
2023/11/23 09:19:48;;;;;;;15.50;11.18;;;10.70;99.90;;;;;;4153654;28;20057;-73
2023/11/23 09:21:48;;;;;;;14.75;11.02;;;10.70;99.90;;;;;;4150999;28;20046;-74
2023/11/23 09:23:49;;;;;;;21.25;12.32;;;10.70;99.90;;;;;;4158489;28;20045;-74
2023/11/23 09:25:49;;;;;;;19.55;11.63;;;10.70;99.90;;;;;;4152577;28;20052;-73
2023/11/23 09:27:50;;;;;;;16.25;11.07;;;10.70;99.90;;;;;;4167295;28;20059;-73
2023/11/23 09:29:51;;;;;;;19.10;12.20;;;10.70;99.90;;;;;;4166051;28;20063;-75
2023/11/23 09:31:52;;;;;;;24.23;13.68;;;10.80;99.90;;;;;;4147483;28;20029;-74
2023/11/23 09:33:52;;;;;;;17.27;12.38;;;10.70;99.90;;;;;;4168339;28;20056;-74
2023/11/23 09:35:53;;;;;;;20.45;13.05;;;10.70;99.90;;;;;;4153078;28;20041;-74
2023/11/23 09:37:54;;;;;;;16.20;11.85;;;10.80;99.90;;;;;;4142092;28;20033;-74
2023/11/23 09:39:55;;;;;;;14.48;10.38;;;10.80;99.90;;;;;;4167627;28;20387;-73
2023/11/23 09:41:58;;;;;;;20.30;11.43;;;10.80;99.90;;;;;;4169424;28;20088;-74
2023/11/23 09:43:58;;;;;;;19.58;11.18;;;10.80;99.90;;;;;;4165729;28;20029;-74
2023/11/23 09:46:00;;;;;;;15.25;11.45;;;10.80;99.90;;;;;;4166314;28;20520;-74
2023/11/23 09:48:02;;;;;;;19.50;13.00;;;10.80;99.90;;;;;;4168254;28;20501;-73
2023/11/23 09:50:05;;;;;;;18.98;11.90;;;10.80;99.90;;;;;;4164477;28;20155;-74
2023/11/23 09:52:06;;;;;;;24.75;12.48;;;10.80;99.90;;;;;;4169863;28;20030;-74
2023/11/23 09:54:08;;;;;;;20.77;13.27;;;10.80;99.90;;;;;;4150040;28;20041;-73
2023/11/23 09:56:09;;;;;;;19.65;12.73;;;10.80;99.90;;;;;;4170614;28;20041;-73
2023/11/23 09:58:10;;;;;;;16.33;11.10;;;10.80;99.90;;;;;;4127759;28;20030;-74
2023/11/23 10:00:14;;;;;;;17.52;11.02;;;10.80;99.90;;;;;;4144378;28;20113;-74
2023/11/23 10:02:20;;;;;;;16.65;11.73;;;10.80;99.90;;;;;;4150677;28;20036;-74
2023/11/23 10:04:21;;;;;;;15.73;11.32;;;10.80;99.90;;;;;;4148906;28;20026;-74
2023/11/23 10:06:22;;;;;;;17.15;11.10;;;10.90;99.90;;;;;;4147849;28;20067;-74
2023/11/23 10:08:23;;;;;;;16.75;10.98;;;10.90;99.90;;;;;;4150053;28;20502;-74
2023/11/23 10:10:25;;;;;;;15.65;10.23;;;10.90;99.90;;;;;;4145878;28;20036;-73
2023/11/23 10:12:27;;;;;;;16.80;10.50;;;10.90;99.90;;;;;;4168684;28;20390;-74
2023/11/23 10:14:29;;;;;;;18.95;11.10;;;11.00;99.90;;;;;;4152143;28;20272;-73
2023/11/23 10:16:33;;;;;;;15.53;10.67;;;11.00;99.90;;;;;;4170010;28;20042;-74
2023/11/23 10:18:42;;;;;;;17.23;10.88;;;10.90;99.90;;;;;;4132397;28;20057;-73
2023/11/23 10:20:51;;;;;;;14.52;10.25;;;10.90;99.90;;;;;;4151359;28;20056;-74